Time;durP1;ratioP1;P1;durP2;ratioP2;P2;SDS_P1;SDS_P2;PMS_P1;PMS_P2;Temp;Humidity;BMP_temperature;BMP_pressure;BME280_temperature;BME280_humidity;BME280_pressure;Samples;Min_cycle;Max_cycle;Signal;HPM_P1;HPM_P2
2024/01/16 00:00:34;;;;;;;5.47;2.73;;;0.40;99.90;;;;;;5013176;28;20311;-86
2024/01/16 00:03:00;;;;;;;8.87;2.63;;;0.40;99.90;;;;;;5011974;28;20577;-86
2024/01/16 00:05:25;;;;;;;4.93;2.57;;;0.40;99.90;;;;;;5013071;28;20226;-86
2024/01/16 00:07:51;;;;;;;5.83;2.83;;;0.40;99.90;;;;;;5012006;28;20184;-86
2024/01/16 00:10:16;;;;;;;5.73;2.90;;;0.40;99.90;;;;;;5013121;28;20688;-86
2024/01/16 00:12:42;;;;;;;6.17;2.53;;;0.40;99.90;;;;;;5013250;28;20188;-86
2024/01/16 00:15:08;;;;;;;7.13;2.90;;;0.40;99.90;;;;;;5016897;28;20195;-86
2024/01/16 00:17:35;;;;;;;6.17;2.50;;;0.40;99.90;;;;;;5015524;28;20184;-86
2024/01/16 00:20:01;;;;;;;7.10;3.03;;;0.40;99.90;;;;;;5015516;28;20345;-86
2024/01/16 00:22:27;;;;;;;5.33;2.63;;;0.40;99.90;;;;;;5015614;28;20229;-86
2024/01/16 00:24:52;;;;;;;5.43;2.40;;;0.40;99.90;;;;;;5015935;28;20585;-86
2024/01/16 00:27:18;;;;;;;6.03;2.90;;;0.50;99.90;;;;;;5016749;28;20195;-86
2024/01/16 00:29:44;;;;;;;8.80;3.00;;;0.50;99.90;;;;;;5015373;28;20580;-86
2024/01/16 00:32:09;;;;;;;6.87;3.00;;;0.50;99.90;;;;;;5015729;28;20256;-86
2024/01/16 00:34:35;;;;;;;4.17;2.63;;;0.50;99.90;;;;;;5015481;28;20203;-87
2024/01/16 00:37:00;;;;;;;6.60;3.03;;;0.50;99.90;;;;;;5015294;28;20183;-87
2024/01/16 00:39:26;;;;;;;6.37;3.00;;;0.50;99.90;;;;;;5015295;28;20203;-87
2024/01/16 00:41:52;;;;;;;7.07;3.00;;;0.50;99.90;;;;;;5015180;28;20184;-87
2024/01/16 00:44:17;;;;;;;9.57;3.20;;;0.40;99.90;;;;;;5015190;28;20219;-87
2024/01/16 00:46:43;;;;;;;4.63;2.93;;;0.40;99.90;;;;;;5015465;28;20183;-87
2024/01/16 00:49:09;;;;;;;4.00;2.73;;;0.40;99.90;;;;;;5015104;28;20184;-87
2024/01/16 00:51:35;;;;;;;6.60;2.90;;;0.40;99.90;;;;;;5015449;28;20294;-86
2024/01/16 00:54:00;;;;;;;6.07;3.17;;;0.40;99.90;;;;;;5015023;28;20728;-86
2024/01/16 00:56:31;;;;;;;7.57;2.80;;;0.40;99.90;;;;;;5014822;28;20203;-86
2024/01/16 00:58:56;;;;;;;9.37;3.33;;;0.40;99.90;;;;;;5014860;28;20180;-86
2024/01/16 01:01:22;;;;;;;5.60;2.40;;;0.40;99.90;;;;;;5014976;28;20614;-85
2024/01/16 01:03:48;;;;;;;4.50;2.80;;;0.40;99.90;;;;;;5014849;28;20175;-86
2024/01/16 01:06:14;;;;;;;8.30;3.10;;;0.40;99.90;;;;;;5016087;28;20187;-86
2024/01/16 01:08:40;;;;;;;7.10;2.97;;;0.40;99.90;;;;;;5015624;28;20188;-86
2024/01/16 01:11:05;;;;;;;5.90;2.87;;;0.40;99.90;;;;;;5015167;28;20203;-86
2024/01/16 01:13:31;;;;;;;4.33;2.70;;;0.40;99.90;;;;;;5014754;28;20207;-86
2024/01/16 01:15:57;;;;;;;6.30;3.23;;;0.40;99.90;;;;;;5015695;28;20206;-86
2024/01/16 01:18:23;;;;;;;5.60;2.70;;;0.40;99.90;;;;;;5014726;28;20191;-86
2024/01/16 01:20:48;;;;;;;6.87;2.80;;;0.40;99.90;;;;;;5014486;28;20223;-86
2024/01/16 01:23:14;;;;;;;6.13;2.60;;;0.40;99.90;;;;;;5014505;28;20211;-86
2024/01/16 01:25:40;;;;;;;8.47;3.00;;;0.40;99.90;;;;;;5014835;28;20539;-86
2024/01/16 01:28:05;;;;;;;5.20;3.00;;;0.40;99.90;;;;;;5014541;28;20210;-86
2024/01/16 01:30:32;;;;;;;6.50;2.77;;;0.40;99.90;;;;;;5014662;28;20203;-86
2024/01/16 01:32:57;;;;;;;6.97;2.93;;;0.40;99.90;;;;;;5014284;28;20215;-87
2024/01/16 01:35:23;;;;;;;8.03;3.17;;;0.40;99.90;;;;;;5014480;28;20230;-87
2024/01/16 01:37:49;;;;;;;9.37;2.60;;;0.40;99.90;;;;;;5015278;28;20191;-87
2024/01/16 01:40:15;;;;;;;5.80;2.90;;;0.40;99.90;;;;;;5014565;28;20206;-87
2024/01/16 01:42:44;;;;;;;3.40;2.60;;;0.40;99.90;;;;;;5014240;28;20233;-87
2024/01/16 01:45:10;;;;;;;9.17;2.70;;;0.40;99.90;;;;;;5014073;28;20195;-87
2024/01/16 01:47:42;;;;;;;7.80;2.93;;;0.40;99.90;;;;;;5014322;28;20274;-87
2024/01/16 01:50:09;;;;;;;5.80;2.80;;;0.30;99.90;;;;;;5014685;28;20536;-87
2024/01/16 01:52:36;;;;;;;7.90;2.87;;;0.30;99.90;;;;;;5014413;28;20278;-87
2024/01/16 01:55:03;;;;;;;7.03;2.80;;;0.30;99.90;;;;;;5013751;28;20249;-86
2024/01/16 01:57:29;;;;;;;4.93;2.60;;;0.30;99.90;;;;;;5014399;28;20230;-86
2024/01/16 01:59:55;;;;;;;6.93;2.80;;;0.30;99.90;;;;;;5013869;28;20227;-86
2024/01/16 02:21:12;;;;;;;4.67;2.50;;;0.30;99.90;;;;;;4937479;29;20222;-75
2024/01/16 02:23:38;;;;;;;5.77;2.50;;;0.40;99.90;;;;;;4936353;29;20182;-74
2024/01/16 02:26:04;;;;;;;5.67;2.63;;;0.30;99.90;;;;;;4937038;29;20233;-73
2024/01/16 02:28:29;;;;;;;3.70;2.27;;;0.30;99.90;;;;;;4937099;29;20186;-75
2024/01/16 02:30:55;;;;;;;5.10;2.40;;;0.30;99.90;;;;;;4937490;29;20266;-75
2024/01/16 02:33:20;;;;;;;4.03;2.43;;;0.30;99.90;;;;;;4936667;29;20182;-75
2024/01/16 02:35:46;;;;;;;3.50;2.13;;;0.30;99.90;;;;;;4935945;29;20214;-75
2024/01/16 02:38:11;;;;;;;7.80;2.73;;;0.30;99.90;;;;;;4937142;29;20183;-75
2024/01/16 02:40:37;;;;;;;6.03;2.23;;;0.30;99.90;;;;;;4936613;29;20178;-75
2024/01/16 02:43:02;;;;;;;4.90;2.37;;;0.20;99.90;;;;;;4936407;29;20175;-74
2024/01/16 02:45:28;;;;;;;5.60;2.40;;;0.30;99.90;;;;;;4935811;29;20572;-74
2024/01/16 02:47:54;;;;;;;7.47;2.47;;;0.20;99.90;;;;;;4936388;29;20206;-74
2024/01/16 02:50:20;;;;;;;5.40;2.40;;;0.20;99.90;;;;;;4935848;29;20198;-74
2024/01/16 02:52:45;;;;;;;5.07;2.30;;;0.20;99.90;;;;;;4936291;29;20205;-73
2024/01/16 02:55:11;;;;;;;8.97;3.00;;;0.20;99.90;;;;;;4936849;29;20209;-73
2024/01/16 02:57:36;;;;;;;7.93;2.40;;;0.10;99.90;;;;;;4935284;29;20197;-74
2024/01/16 03:00:03;;;;;;;6.80;2.70;;;0.10;99.90;;;;;;4936097;29;20182;-74
2024/01/16 03:02:29;;;;;;;6.63;2.83;;;0.10;99.90;;;;;;4936767;29;20176;-73
2024/01/16 03:04:55;;;;;;;5.00;2.40;;;0.20;99.90;;;;;;4935287;29;20186;-73
2024/01/16 03:07:20;;;;;;;6.57;2.60;;;0.10;99.90;;;;;;4935434;29;20212;-74
2024/01/16 03:09:46;;;;;;;5.00;2.50;;;0.10;99.90;;;;;;4935075;29;20182;-74
2024/01/16 03:12:12;;;;;;;8.80;2.73;;;0.20;99.90;;;;;;4935501;29;20189;-73
2024/01/16 03:14:38;;;;;;;4.63;2.40;;;0.10;99.90;;;;;;4935139;29;20269;-73
2024/01/16 03:17:04;;;;;;;5.53;2.80;;;0.00;99.90;;;;;;4935293;29;20269;-73
2024/01/16 03:19:30;;;;;;;8.07;2.97;;;-0.10;99.90;;;;;;4935046;29;20179;-73
2024/01/16 03:21:55;;;;;;;8.23;3.23;;;-0.10;99.90;;;;;;4935291;29;20206;-73
2024/01/16 03:24:21;;;;;;;8.97;3.40;;;-0.20;99.90;;;;;;4935587;29;20175;-73
2024/01/16 03:26:47;;;;;;;8.87;3.00;;;-0.10;99.90;;;;;;4936189;29;20205;-74
2024/01/16 03:29:13;;;;;;;6.67;2.90;;;-0.10;99.90;;;;;;4934952;29;20182;-74
2024/01/16 03:31:38;;;;;;;10.63;3.80;;;-0.10;99.90;;;;;;4935294;29;20249;-75
2024/01/16 03:34:04;;;;;;;8.47;3.10;;;-0.10;99.90;;;;;;4935733;29;20182;-75
2024/01/16 03:36:29;;;;;;;7.07;3.50;;;-0.10;99.90;;;;;;4936042;29;20225;-75
2024/01/16 03:38:55;;;;;;;9.47;3.47;;;-0.20;99.90;;;;;;4937369;29;20194;-75
2024/01/16 03:41:20;;;;;;;5.90;2.97;;;-0.20;99.90;;;;;;4935879;29;20175;-75
2024/01/16 03:43:46;;;;;;;6.90;2.83;;;-0.30;99.90;;;;;;4940640;29;20182;-75
2024/01/16 03:46:12;;;;;;;10.30;2.97;;;-0.20;99.90;;;;;;4941038;29;20213;-75
2024/01/16 03:48:37;;;;;;;11.77;3.10;;;-0.30;99.90;;;;;;4946148;29;20186;-75
2024/01/16 03:51:03;;;;;;;5.93;3.30;;;-0.30;99.90;;;;;;4945956;29;20182;-75
2024/01/16 03:53:28;;;;;;;7.27;3.23;;;-0.30;99.90;;;;;;4945359;29;20186;-75
2024/01/16 03:55:54;;;;;;;4.70;3.07;;;-0.20;99.90;;;;;;4944948;29;20214;-75
2024/01/16 03:58:20;;;;;;;5.57;3.30;;;-0.20;99.90;;;;;;4945426;29;20178;-75
2024/01/16 04:00:46;;;;;;;12.43;3.33;;;-0.20;99.90;;;;;;4946514;29;20339;-75
2024/01/16 04:03:13;;;;;;;6.00;3.03;;;-0.20;99.90;;;;;;4945583;29;20257;-75
2024/01/16 04:05:38;;;;;;;9.23;3.53;;;-0.30;99.90;;;;;;4944516;29;20215;-75
2024/01/16 04:08:04;;;;;;;9.27;3.90;;;-0.40;99.90;;;;;;4945244;29;20182;-75
2024/01/16 04:10:29;;;;;;;7.20;3.90;;;-0.40;99.90;;;;;;4944520;29;20213;-75
2024/01/16 04:12:55;;;;;;;5.97;3.57;;;-0.40;99.90;;;;;;4944794;29;20209;-75
2024/01/16 04:15:21;;;;;;;4.47;3.67;;;-0.40;99.90;;;;;;4945788;29;20209;-75
2024/01/16 04:17:46;;;;;;;7.03;3.37;;;-0.30;99.90;;;;;;4944628;29;20220;-75
2024/01/16 04:20:12;;;;;;;9.77;4.20;;;-0.20;99.90;;;;;;4944563;29;20194;-75
2024/01/16 04:22:37;;;;;;;8.70;4.70;;;-0.20;99.90;;;;;;4945493;29;20305;-75
2024/01/16 04:25:04;;;;;;;10.13;6.90;;;-0.10;99.90;;;;;;4944484;29;20178;-75
2024/01/16 04:27:31;;;;;;;17.60;12.77;;;-0.10;99.90;;;;;;4944245;29;20210;-75
2024/01/16 04:29:57;;;;;;;7.83;5.80;;;-0.10;99.90;;;;;;4944600;29;20197;-75
2024/01/16 04:32:22;;;;;;;11.40;5.73;;;-0.10;99.90;;;;;;4944880;29;20273;-75
2024/01/16 04:34:48;;;;;;;11.97;8.60;;;-0.10;99.90;;;;;;4945963;29;20205;-75
2024/01/16 04:37:13;;;;;;;11.27;6.70;;;-0.10;99.90;;;;;;4944616;29;20249;-75
2024/01/16 04:39:39;;;;;;;7.90;6.20;;;-0.10;99.90;;;;;;4945354;29;20186;-75
2024/01/16 04:42:04;;;;;;;6.57;4.00;;;-0.10;99.90;;;;;;4944308;29;20183;-75
2024/01/16 04:44:30;;;;;;;9.13;4.77;;;-0.10;99.90;;;;;;4944698;29;20184;-75
2024/01/16 04:46:56;;;;;;;9.23;4.30;;;0.00;99.90;;;;;;4944274;29;20238;-75
2024/01/16 04:49:21;;;;;;;6.87;4.20;;;0.00;99.90;;;;;;4944326;29;20178;-75
2024/01/16 04:51:47;;;;;;;9.83;4.00;;;0.00;99.90;;;;;;4945290;29;20182;-75
2024/01/16 04:54:12;;;;;;;8.17;4.37;;;0.00;99.90;;;;;;4944025;29;20178;-75
2024/01/16 04:56:38;;;;;;;5.73;4.37;;;0.00;99.90;;;;;;4943665;29;20222;-75
2024/01/16 04:59:03;;;;;;;7.67;4.30;;;0.10;99.90;;;;;;4943092;29;20186;-75
2024/01/16 05:01:29;;;;;;;5.87;4.13;;;0.10;99.90;;;;;;4945542;29;20189;-75
2024/01/16 05:03:55;;;;;;;7.43;4.10;;;0.10;99.90;;;;;;4939002;29;20185;-74
2024/01/16 05:06:21;;;;;;;6.40;4.00;;;0.10;99.90;;;;;;4937585;29;20296;-74
2024/01/16 05:08:46;;;;;;;6.97;4.10;;;0.10;99.90;;;;;;4937204;29;20560;-74
2024/01/16 05:11:12;;;;;;;12.77;4.30;;;0.10;99.90;;;;;;4937322;29;20182;-74
2024/01/16 05:13:38;;;;;;;9.00;4.50;;;0.10;99.90;;;;;;4937318;29;20186;-74
2024/01/16 05:16:04;;;;;;;6.13;4.03;;;0.10;99.90;;;;;;4937610;29;20228;-74
2024/01/16 05:18:29;;;;;;;8.57;4.23;;;0.10;99.90;;;;;;4937076;29;20214;-74
2024/01/16 05:20:56;;;;;;;7.17;4.03;;;0.10;99.90;;;;;;4937176;29;20183;-74
2024/01/16 05:23:22;;;;;;;7.83;3.90;;;0.10;99.90;;;;;;4937435;29;20191;-74
2024/01/16 05:25:47;;;;;;;7.97;4.03;;;0.10;99.90;;;;;;4937230;29;20202;-74
2024/01/16 05:28:20;;;;;;;7.83;4.50;;;0.00;99.90;;;;;;4938370;29;20193;-74
2024/01/16 05:30:46;;;;;;;11.10;4.37;;;0.00;99.90;;;;;;4937744;29;20178;-74
2024/01/16 05:33:11;;;;;;;10.00;4.20;;;0.00;99.90;;;;;;4937285;29;20189;-74
2024/01/16 05:35:37;;;;;;;7.67;3.93;;;0.00;99.90;;;;;;4936713;29;20206;-74
2024/01/16 05:38:04;;;;;;;7.77;3.87;;;0.00;99.90;;;;;;4937893;29;20181;-74
2024/01/16 05:40:29;;;;;;;8.37;4.13;;;0.00;99.90;;;;;;4936741;29;20668;-74
2024/01/16 05:42:56;;;;;;;10.57;4.53;;;0.00;99.90;;;;;;4939252;29;20197;-74
2024/01/16 05:45:21;;;;;;;8.50;4.47;;;0.10;99.90;;;;;;4952674;29;20273;-74
2024/01/16 05:47:47;;;;;;;7.73;4.57;;;0.10;99.90;;;;;;4937867;29;20292;-74
2024/01/16 05:50:13;;;;;;;11.23;4.50;;;0.10;99.90;;;;;;4937253;29;20186;-74
2024/01/16 05:52:40;;;;;;;8.83;4.33;;;0.10;99.90;;;;;;4937768;29;20521;-81
2024/01/16 05:55:07;;;;;;;7.73;4.13;;;0.10;99.90;;;;;;4952786;29;20214;-74
2024/01/16 05:57:33;;;;;;;9.80;3.93;;;0.10;99.90;;;;;;4952313;29;20198;-74
2024/01/16 05:59:59;;;;;;;12.27;4.90;;;0.10;99.90;;;;;;4945328;29;20193;-76
2024/01/16 06:02:25;;;;;;;8.90;4.77;;;0.10;99.90;;;;;;4962776;29;20185;-76
2024/01/16 06:04:55;;;;;;;7.77;4.53;;;0.10;99.90;;;;;;4958284;29;20190;-77
2024/01/16 06:07:21;;;;;;;9.03;5.23;;;0.10;99.90;;;;;;4943323;29;20213;-76
2024/01/16 06:09:47;;;;;;;11.80;5.47;;;0.20;99.90;;;;;;4955868;29;20190;-74
2024/01/16 06:12:12;;;;;;;10.73;6.03;;;0.10;99.90;;;;;;4952970;29;20197;-74
2024/01/16 06:14:38;;;;;;;10.27;6.17;;;0.20;99.90;;;;;;4937268;29;22054;-74
2024/01/16 06:17:57;;;;;;;12.27;6.57;;;0.20;99.90;;;;;;4937264;29;20297;-73
2024/01/16 06:23:45;;;;;;;13.80;8.07;;;0.10;99.90;;;;;;4937231;29;20227;-76
2024/01/16 06:26:10;;;;;;;10.30;7.00;;;0.00;99.90;;;;;;4954603;29;20226;-75
2024/01/16 06:28:36;;;;;;;14.17;8.27;;;0.00;99.90;;;;;;4958488;29;20193;-76
2024/01/16 06:31:02;;;;;;;11.93;7.63;;;0.00;99.90;;;;;;4958820;29;20183;-76
2024/01/16 06:33:27;;;;;;;10.87;7.90;;;0.00;99.90;;;;;;4960428;29;20229;-75
2024/01/16 06:35:56;;;;;;;15.13;8.27;;;0.00;99.90;;;;;;4960118;29;20226;-76
2024/01/16 06:38:22;;;;;;;11.83;7.80;;;-0.10;99.90;;;;;;4945683;29;20178;-77
2024/01/16 06:40:47;;;;;;;30.23;18.60;;;-0.10;99.90;;;;;;4959564;29;20273;-84
2024/01/16 06:43:15;;;;;;;21.40;15.40;;;-0.10;99.90;;;;;;4959457;29;20183;-76
2024/01/16 06:45:42;;;;;;;14.50;10.73;;;-0.20;99.90;;;;;;4959558;29;20197;-75
2024/01/16 06:48:07;;;;;;;12.53;8.03;;;-0.20;99.90;;;;;;4944661;29;20186;-75
2024/01/16 06:50:33;;;;;;;17.37;8.73;;;-0.20;99.90;;;;;;4959144;29;20277;-75
2024/01/16 06:52:58;;;;;;;14.43;8.40;;;-0.20;99.90;;;;;;4960285;29;20182;-75
2024/01/16 06:55:24;;;;;;;12.00;9.10;;;-0.20;99.90;;;;;;4959487;29;20202;-75
2024/01/16 06:57:49;;;;;;;15.43;10.87;;;-0.20;99.90;;;;;;4959649;29;20230;-75
2024/01/16 07:00:16;;;;;;;10.53;8.67;;;-0.30;99.90;;;;;;4943424;29;20182;-75
2024/01/16 07:02:44;;;;;;;12.87;8.53;;;-0.30;99.90;;;;;;4959054;29;20185;-75
2024/01/16 07:05:11;;;;;;;15.30;11.07;;;-0.40;99.90;;;;;;4944298;29;20237;-75
2024/01/16 07:07:37;;;;;;;15.60;9.20;;;-0.50;99.90;;;;;;4942404;29;20693;-75
2024/01/16 07:10:03;;;;;;;14.73;7.80;;;-0.60;99.90;;;;;;4959196;29;20245;-75
2024/01/16 07:12:29;;;;;;;15.10;10.20;;;-0.70;99.90;;;;;;4944613;29;20182;-75
2024/01/16 07:14:54;;;;;;;12.53;8.90;;;-0.70;99.90;;;;;;4942603;29;20210;-75
2024/01/16 07:17:20;;;;;;;14.87;9.90;;;-0.70;99.90;;;;;;4958989;29;20214;-75
2024/01/16 07:19:45;;;;;;;16.77;9.87;;;-0.80;99.90;;;;;;4958968;29;20183;-75
2024/01/16 07:22:11;;;;;;;17.80;9.83;;;-0.80;99.90;;;;;;4958905;29;20189;-75
2024/01/16 07:24:36;;;;;;;17.33;7.37;;;-0.80;99.90;;;;;;4958863;29;20193;-75
2024/01/16 07:27:02;;;;;;;12.80;7.50;;;-0.80;99.90;;;;;;4958682;29;20204;-75
2024/01/16 07:29:28;;;;;;;14.10;7.60;;;-0.70;99.90;;;;;;4960029;29;20238;-75
2024/01/16 07:31:53;;;;;;;13.33;9.70;;;-0.60;99.90;;;;;;4943964;29;20174;-75
2024/01/16 07:34:22;;;;;;;18.07;9.97;;;-0.60;99.90;;;;;;4944100;29;20190;-75
2024/01/16 07:36:48;;;;;;;12.43;8.20;;;-0.60;99.90;;;;;;4944099;29;20209;-75
2024/01/16 07:39:14;;;;;;;16.90;8.97;;;-0.50;99.90;;;;;;4958654;29;20186;-75
2024/01/16 07:41:40;;;;;;;15.33;8.33;;;-0.50;99.90;;;;;;4958800;29;20186;-75
2024/01/16 07:44:05;;;;;;;11.03;8.33;;;-0.50;99.90;;;;;;4943940;29;20182;-75
2024/01/16 07:46:31;;;;;;;12.63;9.73;;;-0.50;99.90;;;;;;4958781;29;20209;-75
2024/01/16 07:48:57;;;;;;;14.93;8.57;;;-0.40;99.90;;;;;;4959727;29;20196;-75
2024/01/16 07:51:22;;;;;;;15.20;8.33;;;-0.40;99.90;;;;;;4943496;29;20183;-75
2024/01/16 07:53:48;;;;;;;16.83;7.67;;;-0.30;99.90;;;;;;4942245;29;20197;-75
2024/01/16 07:56:14;;;;;;;12.90;7.40;;;-0.20;99.90;;;;;;4958062;29;20233;-75
2024/01/16 07:58:40;;;;;;;9.40;6.97;;;-0.20;99.90;;;;;;4943241;29;20182;-75
2024/01/16 08:01:06;;;;;;;16.53;7.90;;;-0.20;99.90;;;;;;4958332;29;20189;-75
2024/01/16 08:03:32;;;;;;;13.67;8.10;;;-0.20;99.90;;;;;;4943244;29;20175;-75
2024/01/16 08:05:59;;;;;;;18.63;8.00;;;-0.10;99.90;;;;;;4958306;29;20735;-75
2024/01/16 08:08:24;;;;;;;11.97;7.30;;;-0.10;99.90;;;;;;4945698;29;20260;-75
2024/01/16 08:10:50;;;;;;;12.67;6.97;;;0.00;99.90;;;;;;4964597;29;20198;-75
2024/01/16 08:13:15;;;;;;;16.80;8.33;;;0.00;99.90;;;;;;4964113;29;20178;-75
2024/01/16 08:15:41;;;;;;;15.70;7.97;;;0.10;99.90;;;;;;4963330;29;20218;-75
2024/01/16 08:18:06;;;;;;;13.03;7.37;;;0.20;99.90;;;;;;4948501;29;20194;-75
2024/01/16 08:20:32;;;;;;;15.87;7.90;;;0.30;99.90;;;;;;4963765;29;20187;-75
2024/01/16 08:22:58;;;;;;;10.60;6.80;;;0.50;99.90;;;;;;4964207;29;20182;-75
2024/01/16 08:25:23;;;;;;;8.87;6.07;;;0.60;99.90;;;;;;4963292;29;20250;-75
2024/01/16 08:27:49;;;;;;;9.80;6.80;;;0.60;99.90;;;;;;4964772;29;20190;-75
2024/01/16 08:30:15;;;;;;;11.07;6.57;;;0.60;99.90;;;;;;4963824;29;20281;-75
2024/01/16 08:32:40;;;;;;;10.50;6.20;;;0.60;99.90;;;;;;4949691;29;20178;-75
2024/01/16 08:35:06;;;;;;;11.17;6.60;;;0.50;99.90;;;;;;4966736;28;20225;-75
2024/01/16 08:37:33;;;;;;;12.97;6.27;;;0.50;99.90;;;;;;4948114;29;20224;-75
2024/01/16 08:39:58;;;;;;;8.63;6.67;;;0.50;99.90;;;;;;4964146;29;20186;-75
2024/01/16 08:42:24;;;;;;;10.10;6.57;;;0.50;99.90;;;;;;4962765;29;20740;-75
2024/01/16 08:44:49;;;;;;;12.77;6.33;;;0.60;99.90;;;;;;4947353;29;20187;-75
2024/01/16 08:47:15;;;;;;;11.47;6.30;;;0.70;99.90;;;;;;4946681;29;20241;-75
2024/01/16 08:49:40;;;;;;;11.70;6.33;;;0.70;99.90;;;;;;4948185;29;20229;-75
2024/01/16 08:52:06;;;;;;;13.53;6.30;;;0.70;99.90;;;;;;4947246;29;20182;-75
2024/01/16 08:54:32;;;;;;;11.37;6.83;;;0.80;99.90;;;;;;4945574;29;20267;-75
2024/01/16 08:56:58;;;;;;;15.33;9.17;;;0.80;99.90;;;;;;4961984;29;20545;-75
2024/01/16 08:59:24;;;;;;;10.37;6.77;;;0.70;99.90;;;;;;4946828;29;20207;-75
2024/01/16 09:01:49;;;;;;;8.40;5.83;;;0.60;99.90;;;;;;4946397;29;20174;-75
2024/01/16 09:04:15;;;;;;;11.40;5.77;;;0.70;99.90;;;;;;4962344;29;20328;-75
2024/01/16 09:06:41;;;;;;;9.60;6.17;;;0.70;99.90;;;;;;4961823;29;20301;-75
2024/01/16 09:09:09;;;;;;;14.53;6.53;;;0.70;99.90;;;;;;4947178;29;20209;-76
2024/01/16 09:11:34;;;;;;;9.33;6.13;;;0.60;99.90;;;;;;4961614;29;20194;-76
2024/01/16 09:14:00;;;;;;;8.10;5.80;;;0.50;99.90;;;;;;4945796;29;20187;-76
2024/01/16 09:16:25;;;;;;;12.80;6.70;;;0.50;99.90;;;;;;4960937;29;20222;-75
2024/01/16 09:18:51;;;;;;;7.67;6.03;;;0.50;99.90;;;;;;4946562;29;20178;-75
2024/01/16 09:21:17;;;;;;;11.53;6.10;;;0.50;99.90;;;;;;4961613;29;20174;-75
2024/01/16 09:23:42;;;;;;;9.20;6.70;;;0.50;99.90;;;;;;4961540;29;20237;-75
2024/01/16 09:26:08;;;;;;;16.00;7.90;;;0.70;99.90;;;;;;4960724;29;20230;-75
2024/01/16 09:28:34;;;;;;;16.83;8.83;;;0.70;99.90;;;;;;4961093;29;20178;-75
2024/01/16 09:30:59;;;;;;;23.13;14.00;;;0.70;99.90;;;;;;4945766;29;20180;-75
2024/01/16 09:33:25;;;;;;;15.97;9.87;;;0.70;99.90;;;;;;4946106;29;20183;-75
2024/01/16 09:35:51;;;;;;;24.57;13.37;;;0.60;99.90;;;;;;4946259;29;20229;-74
2024/01/16 09:38:17;;;;;;;14.60;8.77;;;0.60;99.90;;;;;;4960589;29;20242;-75
2024/01/16 09:40:42;;;;;;;9.97;6.20;;;0.60;99.90;;;;;;4946273;29;20202;-75
2024/01/16 09:43:09;;;;;;;10.83;6.60;;;0.60;99.90;;;;;;4945050;29;20186;-75
2024/01/16 09:45:37;;;;;;;12.03;6.30;;;0.70;99.90;;;;;;4960251;28;20190;-75
2024/01/16 09:48:04;;;;;;;12.07;6.73;;;0.70;99.90;;;;;;4960491;29;20186;-75
2024/01/16 09:50:30;;;;;;;8.73;6.83;;;0.80;99.90;;;;;;4959293;29;20182;-75
2024/01/16 09:52:55;;;;;;;9.10;6.60;;;0.90;99.90;;;;;;4960226;29;20214;-75
2024/01/16 09:55:21;;;;;;;12.63;6.33;;;1.10;99.90;;;;;;4945184;29;20210;-76
2024/01/16 09:57:53;;;;;;;11.37;6.27;;;1.20;99.90;;;;;;4960144;29;20209;-75
2024/01/16 10:00:20;;;;;;;11.70;6.50;;;1.30;99.90;;;;;;4960532;29;20171;-75
2024/01/16 10:02:45;;;;;;;11.37;6.20;;;1.40;99.90;;;;;;4960555;29;20174;-75
2024/01/16 10:05:12;;;;;;;12.80;6.33;;;1.40;99.90;;;;;;4959948;29;20325;-75
2024/01/16 10:07:39;;;;;;;11.13;5.93;;;1.40;99.90;;;;;;4959279;29;20202;-75
2024/01/16 10:10:06;;;;;;;9.37;5.63;;;1.40;99.90;;;;;;4959524;29;20197;-75
2024/01/16 10:12:32;;;;;;;11.03;6.30;;;1.40;99.90;;;;;;4960264;29;20186;-75
2024/01/16 10:14:59;;;;;;;15.40;6.30;;;1.50;99.90;;;;;;4959712;29;20210;-75
2024/01/16 10:17:41;;;;;;;11.63;5.93;;;1.60;99.90;;;;;;4959820;29;20217;-75
2024/01/16 10:20:12;;;;;;;8.77;5.40;;;1.60;99.90;;;;;;4943385;29;20193;-76
2024/01/16 10:22:39;;;;;;;9.10;5.80;;;1.60;99.90;;;;;;4944424;29;20179;-76
2024/01/16 10:25:06;;;;;;;8.37;5.70;;;1.50;99.90;;;;;;4959461;29;20193;-76
2024/01/16 10:27:35;;;;;;;10.40;6.43;;;1.50;99.90;;;;;;4959455;29;20202;-76
2024/01/16 10:30:02;;;;;;;8.63;5.90;;;1.50;99.90;;;;;;4945128;29;20182;-76
2024/01/16 10:32:35;;;;;;;9.23;6.20;;;1.40;99.90;;;;;;4959501;29;20196;-76
2024/01/16 10:35:10;;;;;;;12.57;6.03;;;1.30;99.90;;;;;;4959113;29;20218;-76
2024/01/16 10:37:50;;;;;;;12.87;6.30;;;1.20;99.90;;;;;;4958951;29;20225;-75
2024/01/16 10:40:21;;;;;;;10.47;6.30;;;1.10;99.90;;;;;;4959175;29;20178;-75
2024/01/16 10:42:58;;;;;;;8.47;6.37;;;1.20;99.90;;;;;;4960057;29;20174;-75
2024/01/16 10:45:23;;;;;;;12.03;6.33;;;1.10;99.90;;;;;;4960149;29;20269;-75
2024/01/16 10:48:06;;;;;;;14.60;6.57;;;1.10;99.90;;;;;;4944805;29;20668;-75
2024/01/16 10:50:37;;;;;;;10.30;6.33;;;1.10;99.90;;;;;;4959209;29;20736;-75
2024/01/16 10:53:07;;;;;;;9.47;6.20;;;1.10;99.90;;;;;;4959442;29;20268;-75
2024/01/16 10:55:51;;;;;;;15.37;6.43;;;1.10;99.90;;;;;;4943918;29;20203;-75
2024/01/16 10:58:25;;;;;;;15.50;6.77;;;1.00;99.90;;;;;;4958548;28;20182;-75
2024/01/16 11:00:53;;;;;;;10.70;6.70;;;1.00;99.90;;;;;;4944181;29;20198;-75
2024/01/16 11:03:30;;;;;;;13.53;6.20;;;1.00;99.90;;;;;;4958559;29;20182;-75
2024/01/16 11:05:57;;;;;;;11.17;6.40;;;1.00;99.90;;;;;;4958841;29;20209;-75
2024/01/16 11:08:29;;;;;;;9.20;6.30;;;1.00;99.90;;;;;;4959518;29;20186;-75
2024/01/16 11:10:55;;;;;;;15.17;6.70;;;1.10;99.90;;;;;;4958520;29;20182;-75
2024/01/16 11:13:22;;;;;;;11.23;5.90;;;1.20;99.90;;;;;;4959446;29;20189;-75
2024/01/16 11:15:49;;;;;;;10.27;5.77;;;1.30;99.90;;;;;;4943020;29;20225;-75
2024/01/16 11:18:17;;;;;;;11.40;6.63;;;1.40;99.90;;;;;;4943987;29;20610;-75
2024/01/16 11:20:44;;;;;;;9.57;5.87;;;1.50;99.90;;;;;;4959156;29;20194;-75
2024/01/16 11:23:11;;;;;;;13.73;5.70;;;1.60;99.90;;;;;;4958883;29;20182;-75
2024/01/16 11:25:37;;;;;;;13.40;6.10;;;1.70;99.90;;;;;;4959051;29;20197;-75
2024/01/16 11:28:11;;;;;;;12.03;6.27;;;1.80;99.90;;;;;;4959096;29;20186;-75
2024/01/16 11:30:37;;;;;;;9.97;6.40;;;1.80;99.90;;;;;;4959367;29;20675;-75
2024/01/16 11:33:06;;;;;;;9.70;5.57;;;1.80;99.90;;;;;;4944627;29;20194;-75
2024/01/16 11:35:40;;;;;;;14.43;5.80;;;1.80;99.90;;;;;;4943258;29;20209;-75
2024/01/16 11:38:14;;;;;;;11.47;6.30;;;1.90;99.90;;;;;;4958605;29;20174;-75
2024/01/16 11:40:40;;;;;;;8.50;5.00;;;2.00;99.90;;;;;;4943050;29;20175;-75
2024/01/16 11:43:34;;;;;;;10.53;5.57;;;1.90;99.90;;;;;;4958887;29;20189;-75
2024/01/16 11:46:09;;;;;;;11.13;6.00;;;1.90;99.90;;;;;;4943376;29;20198;-75
2024/01/16 11:48:35;;;;;;;9.40;5.47;;;1.80;99.90;;;;;;4941762;29;20178;-75
2024/01/16 11:51:24;;;;;;;14.70;5.90;;;1.80;99.90;;;;;;4958876;29;20182;-75
2024/01/16 11:53:50;;;;;;;11.90;6.30;;;1.80;99.90;;;;;;4943303;29;20212;-76
2024/01/16 11:56:25;;;;;;;9.17;5.57;;;1.80;99.90;;;;;;4942412;29;20222;-75
2024/01/16 11:59:32;;;;;;;8.87;4.83;;;1.70;99.90;;;;;;4943992;29;20161;-75
2024/01/16 12:01:58;;;;;;;8.07;5.37;;;1.70;99.90;;;;;;4913218;29;20724;-75
2024/01/16 12:04:24;;;;;;;10.97;5.87;;;1.70;99.90;;;;;;4958980;29;20189;-75
2024/01/16 12:06:58;;;;;;;9.43;5.17;;;1.70;99.90;;;;;;4958323;29;20221;-75
2024/01/16 12:09:26;;;;;;;9.57;4.80;;;1.70;99.90;;;;;;4962263;28;20175;-75
2024/01/16 12:12:03;;;;;;;9.57;4.93;;;1.70;99.90;;;;;;4946144;29;20187;-75
2024/01/16 12:14:29;;;;;;;6.97;4.80;;;1.60;99.90;;;;;;4961848;29;20199;-75
2024/01/16 12:17:11;;;;;;;7.20;4.20;;;1.60;99.90;;;;;;4961963;29;20301;-75
2024/01/16 12:19:40;;;;;;;6.63;4.43;;;1.50;99.90;;;;;;4960674;29;20190;-74
2024/01/16 12:22:08;;;;;;;9.10;4.73;;;1.40;99.90;;;;;;4954210;29;20186;-74
2024/01/16 12:24:37;;;;;;;10.70;4.50;;;1.40;99.90;;;;;;4939781;29;20182;-74
2024/01/16 12:27:04;;;;;;;10.47;4.33;;;1.50;99.90;;;;;;4939295;29;20205;-73
2024/01/16 12:29:29;;;;;;;6.87;4.20;;;1.60;99.90;;;;;;4954131;29;20191;-73
2024/01/16 12:32:06;;;;;;;10.53;4.30;;;1.50;99.90;;;;;;4954908;29;20195;-73
2024/01/16 12:34:32;;;;;;;12.33;4.43;;;1.60;99.90;;;;;;4939184;29;20182;-73
2024/01/16 12:37:06;;;;;;;7.33;4.50;;;1.60;99.90;;;;;;4954224;29;20232;-74
2024/01/16 12:39:35;;;;;;;9.90;4.33;;;1.60;99.90;;;;;;4937989;29;20241;-73
2024/01/16 12:42:01;;;;;;;6.47;3.87;;;1.50;99.90;;;;;;4953855;29;20197;-73
2024/01/16 12:44:30;;;;;;;8.00;4.20;;;1.50;99.90;;;;;;4953912;29;20190;-73
2024/01/16 12:46:56;;;;;;;6.37;4.00;;;1.60;99.90;;;;;;4953783;29;20213;-74
2024/01/16 12:49:23;;;;;;;6.47;4.30;;;1.60;99.90;;;;;;4954598;29;20186;-73
2024/01/16 12:51:50;;;;;;;5.20;4.07;;;1.50;99.90;;;;;;4954495;29;20265;-73
2024/01/16 12:54:18;;;;;;;7.77;4.60;;;1.50;99.90;;;;;;4937758;29;20555;-73
2024/01/16 12:56:44;;;;;;;8.77;5.10;;;1.40;99.90;;;;;;4937802;29;20221;-73
2024/01/16 12:59:12;;;;;;;10.00;5.40;;;1.30;99.90;;;;;;4938839;29;20178;-73
2024/01/16 13:01:43;;;;;;;8.27;4.77;;;1.20;99.90;;;;;;4938878;29;20688;-73
2024/01/16 13:04:10;;;;;;;11.03;5.40;;;1.20;99.90;;;;;;4954521;29;20219;-73
2024/01/16 13:06:36;;;;;;;12.00;6.67;;;1.10;99.90;;;;;;4938683;29;20202;-73
2024/01/16 13:09:10;;;;;;;9.57;6.53;;;1.20;99.90;;;;;;4953546;29;20218;-73
2024/01/16 13:11:46;;;;;;;17.43;10.50;;;1.20;99.90;;;;;;4953422;29;20189;-73